Terminal Aerodrome Forecast
Issued by NWS

Home | Current Version | Previous Version | Text Only | Print | Product List | Glossary On
Versions: 1 2 3 4 5 6 7 8 9 10 11 12 13 14 15 16 17 18 19 20 21 22 23 24 25
000
FTUS46 KSEW 221736
TAFBFI
TAF
KBFI 221736Z 2218/2318 19011KT P6SM VCSH SCT020 SCT035 BKN050
     FM222000 19007KT P6SM VCSH BKN035 BKN050
     FM230000 18005KT P6SM SCT035 BKN060
     FM230600 14005KT P6SM SCT050 BKN100
     FM231400 13004KT P6SM -RA BKN050 OVC060=

USA.gov is the U.S. government's official web portal to all federal, state and local government web resources and services.